Aérodrome :
LOGIN :

S'inscrire | Disclaimer

   EN    FR    IT 

 










Légende :    VFR   VFR Marginal   IFR   IFR Intensif   IFR Très Intensif
Visi : 
Plafond : 
>= 8 km
>= 3000ft
5 à 8 km
1000 à 3000 ft
1500m à 5 km
500 à 1000 ft
800 à 1500m
200 à 500 ft
< 800m
< 200 ft
Symboles :   Orages  Brouillard  Fortes neiges  Fortes précipitations  Vent > 20 kt
SIGMETs :   Divers  Orages  Givrage  Turbulence  Onde Orograph.  Cendres Volcan.






- Altitude de l'aérodrome : 935 ft


EBFS - Florennes

DERNIER METAR :
  • 110355Z AUTO VRB02KT 9999 FEW075/// BKN200/// 10/09 Q1008 BLU

METARs EXPIRÉS :
  • 110325Z AUTO VRB01KT 9999 FEW075/// BKN210/// 10/09 Q1008 BLU
  • 110255Z AUTO 16003KT 9999 FEW180/// 10/09 Q1008 BLU
  • 110225Z AUTO VRB01KT 9999 FEW100/// 11/09 Q1008 BLU
  • 110155Z AUTO 17003KT 9999 FEW100/// BKN170/// 11/09 Q1008 BLU
  • 110125Z AUTO VRB01KT 9999 OVC170/// 12/09 Q1008 BLU
  • 110055Z AUTO VRB01KT 9999 FEW095/// BKN180/// 12/09 Q1008 BLU

TAF TAF EBFS
Valide du 10 à 19h jusqu'au 11 à 07h UTC


101541Z 1019/1107 19008KT 9999 FEW040 BKN200
PROB30
TEMPO 1102/1107 19012KT 7000 -SHRA SCT030 BKN050



MET'MAP, la Météo Aéronautique d'un coup d'oeil ! - Copyright ORBIFLY Décembre 2007 - Disclaimer

ORBIFLY MET'MAP TEAM :

Programmation & Développement : Alexandra Zaïnal
Sur une idée originale de : Baudouin d'Aumeries
Assistance à la programmation : Marc-Olivier Méhu
Soutien technique & logistique : Manuel Goepfert

Contact : metmap@orbifly.com




SOURCES & CREDITS :

   NOAA